sensor_id;sensor_type;location;lat;lon;timestamp;P1;durP1;ratioP1;P2;durP2;ratioP2
42978;SDS011;28616;44.746;19.678;2022-07-29T00:00:52;12.52;;;5.68;;
42978;SDS011;28616;44.746;19.678;2022-07-29T00:03:18;10.02;;;6.70;;
42978;SDS011;28616;44.746;19.678;2022-07-29T00:05:44;10.63;;;6.32;;
42978;SDS011;28616;44.746;19.678;2022-07-29T00:08:10;8.80;;;6.28;;
42978;SDS011;28616;44.746;19.678;2022-07-29T00:10:35;11.13;;;6.25;;
42978;SDS011;28616;44.746;19.678;2022-07-29T00:13:01;14.75;;;8.93;;
42978;SDS011;28616;44.746;19.678;2022-07-29T00:15:27;12.23;;;7.30;;
42978;SDS011;28616;44.746;19.678;2022-07-29T00:17:53;11.27;;;7.40;;
42978;SDS011;28616;44.746;19.678;2022-07-29T00:20:19;10.60;;;5.97;;
42978;SDS011;28616;44.746;19.678;2022-07-29T00:22:45;9.13;;;6.43;;
42978;SDS011;28616;44.746;19.678;2022-07-29T00:25:11;14.52;;;7.32;;
42978;SDS011;28616;44.746;19.678;2022-07-29T00:27:38;12.55;;;6.63;;
42978;SDS011;28616;44.746;19.678;2022-07-29T00:30:04;9.35;;;6.45;;
42978;SDS011;28616;44.746;19.678;2022-07-29T00:32:31;7.88;;;5.78;;
42978;SDS011;28616;44.746;19.678;2022-07-29T00:34:57;12.20;;;6.43;;
42978;SDS011;28616;44.746;19.678;2022-07-29T00:37:41;10.05;;;6.40;;
42978;SDS011;28616;44.746;19.678;2022-07-29T00:40:07;11.05;;;6.95;;
42978;SDS011;28616;44.746;19.678;2022-07-29T00:42:46;12.00;;;7.95;;
42978;SDS011;28616;44.746;19.678;2022-07-29T00:45:14;10.73;;;8.07;;
42978;SDS011;28616;44.746;19.678;2022-07-29T00:47:40;18.58;;;5.93;;
42978;SDS011;28616;44.746;19.678;2022-07-29T00:50:07;7.72;;;5.47;;
42978;SDS011;28616;44.746;19.678;2022-07-29T00:52:34;11.40;;;5.35;;
42978;SDS011;28616;44.746;19.678;2022-07-29T00:55:03;8.02;;;5.85;;
42978;SDS011;28616;44.746;19.678;2022-07-29T00:57:29;10.80;;;7.57;;
42978;SDS011;28616;44.746;19.678;2022-07-29T00:59:55;14.15;;;6.15;;
42978;SDS011;28616;44.746;19.678;2022-07-29T01:02:21;10.35;;;6.15;;
42978;SDS011;28616;44.746;19.678;2022-07-29T01:04:47;11.02;;;6.60;;
42978;SDS011;28616;44.746;19.678;2022-07-29T01:07:13;12.27;;;5.97;;
42978;SDS011;28616;44.746;19.678;2022-07-29T01:09:39;10.48;;;5.93;;
42978;SDS011;28616;44.746;19.678;2022-07-29T01:12:07;10.02;;;5.95;;
42978;SDS011;28616;44.746;19.678;2022-07-29T01:14:33;11.95;;;5.82;;
42978;SDS011;28616;44.746;19.678;2022-07-29T01:17:02;12.57;;;7.05;;
42978;SDS011;28616;44.746;19.678;2022-07-29T01:19:56;11.18;;;6.50;;
42978;SDS011;28616;44.746;19.678;2022-07-29T01:22:46;11.02;;;5.65;;
42978;SDS011;28616;44.746;19.678;2022-07-29T01:28:40;20.08;;;9.23;;
42978;SDS011;28616;44.746;19.678;2022-07-29T01:31:19;15.10;;;8.45;;
42978;SDS011;28616;44.746;19.678;2022-07-29T01:33:50;15.13;;;7.95;;
42978;SDS011;28616;44.746;19.678;2022-07-29T01:36:27;16.10;;;7.90;;
42978;SDS011;28616;44.746;19.678;2022-07-29T01:39:02;17.02;;;8.32;;
42978;SDS011;28616;44.746;19.678;2022-07-29T01:41:58;14.55;;;6.18;;
42978;SDS011;28616;44.746;19.678;2022-07-29T01:44:39;9.32;;;6.35;;
42978;SDS011;28616;44.746;19.678;2022-07-29T01:47:19;11.32;;;7.28;;
42978;SDS011;28616;44.746;19.678;2022-07-29T01:49:49;11.50;;;6.28;;
42978;SDS011;28616;44.746;19.678;2022-07-29T01:52:26;11.00;;;6.30;;
42978;SDS011;28616;44.746;19.678;2022-07-29T01:55:07;18.27;;;6.55;;
42978;SDS011;28616;44.746;19.678;2022-07-29T01:57:38;18.63;;;8.88;;
42978;SDS011;28616;44.746;19.678;2022-07-29T02:00:07;7.18;;;5.32;;
42978;SDS011;28616;44.746;19.678;2022-07-29T02:02:34;12.40;;;7.63;;
42978;SDS011;28616;44.746;19.678;2022-07-29T02:05:02;6.47;;;5.78;;
42978;SDS011;28616;44.746;19.678;2022-07-29T02:07:31;10.07;;;5.13;;
42978;SDS011;28616;44.746;19.678;2022-07-29T02:09:58;7.50;;;5.72;;
42978;SDS011;28616;44.746;19.678;2022-07-29T02:12:27;9.38;;;6.03;;
42978;SDS011;28616;44.746;19.678;2022-07-29T02:14:54;10.00;;;5.97;;
42978;SDS011;28616;44.746;19.678;2022-07-29T02:17:25;11.13;;;6.50;;
42978;SDS011;28616;44.746;19.678;2022-07-29T02:19:56;9.57;;;6.65;;
42978;SDS011;28616;44.746;19.678;2022-07-29T02:22:24;9.40;;;6.72;;
42978;SDS011;28616;44.746;19.678;2022-07-29T02:24:54;8.93;;;6.05;;
42978;SDS011;28616;44.746;19.678;2022-07-29T02:27:22;12.68;;;6.18;;
42978;SDS011;28616;44.746;19.678;2022-07-29T02:29:50;10.23;;;6.18;;
42978;SDS011;28616;44.746;19.678;2022-07-29T02:32:18;12.38;;;6.43;;
42978;SDS011;28616;44.746;19.678;2022-07-29T02:34:46;8.73;;;5.43;;
42978;SDS011;28616;44.746;19.678;2022-07-29T02:37:13;18.83;;;6.13;;
42978;SDS011;28616;44.746;19.678;2022-07-29T02:39:42;15.18;;;6.32;;
42978;SDS011;28616;44.746;19.678;2022-07-29T02:42:11;11.70;;;5.97;;
42978;SDS011;28616;44.746;19.678;2022-07-29T02:44:40;10.18;;;6.07;;
42978;SDS011;28616;44.746;19.678;2022-07-29T02:47:14;10.00;;;5.80;;
42978;SDS011;28616;44.746;19.678;2022-07-29T02:50:11;10.35;;;6.15;;
42978;SDS011;28616;44.746;19.678;2022-07-29T02:52:59;10.55;;;5.70;;
42978;SDS011;28616;44.746;19.678;2022-07-29T02:55:48;13.15;;;6.90;;
42978;SDS011;28616;44.746;19.678;2022-07-29T02:58:24;31.10;;;7.30;;
42978;SDS011;28616;44.746;19.678;2022-07-29T03:01:02;15.13;;;6.70;;
42978;SDS011;28616;44.746;19.678;2022-07-29T03:03:34;12.05;;;6.80;;
42978;SDS011;28616;44.746;19.678;2022-07-29T03:06:02;12.82;;;6.47;;
42978;SDS011;28616;44.746;19.678;2022-07-29T03:08:30;12.98;;;6.97;;
42978;SDS011;28616;44.746;19.678;2022-07-29T03:10:57;12.27;;;6.22;;
42978;SDS011;28616;44.746;19.678;2022-07-29T03:13:23;10.18;;;6.75;;
42978;SDS011;28616;44.746;19.678;2022-07-29T03:15:50;15.77;;;6.45;;
42978;SDS011;28616;44.746;19.678;2022-07-29T03:18:18;11.88;;;6.75;;
42978;SDS011;28616;44.746;19.678;2022-07-29T03:20:44;16.20;;;9.52;;
42978;SDS011;28616;44.746;19.678;2022-07-29T03:23:10;13.73;;;6.88;;
42978;SDS011;28616;44.746;19.678;2022-07-29T03:25:36;13.43;;;8.07;;
42978;SDS011;28616;44.746;19.678;2022-07-29T03:28:02;15.88;;;6.90;;
42978;SDS011;28616;44.746;19.678;2022-07-29T03:30:28;10.82;;;6.50;;
42978;SDS011;28616;44.746;19.678;2022-07-29T03:32:55;13.65;;;6.93;;
42978;SDS011;28616;44.746;19.678;2022-07-29T03:35:21;10.18;;;7.00;;
42978;SDS011;28616;44.746;19.678;2022-07-29T03:37:47;11.27;;;8.07;;
42978;SDS011;28616;44.746;19.678;2022-07-29T03:40:17;18.42;;;7.05;;
42978;SDS011;28616;44.746;19.678;2022-07-29T03:42:47;14.18;;;6.95;;
42978;SDS011;28616;44.746;19.678;2022-07-29T03:45:17;10.00;;;7.03;;
42978;SDS011;28616;44.746;19.678;2022-07-29T03:47:55;12.48;;;7.13;;
42978;SDS011;28616;44.746;19.678;2022-07-29T03:50:24;14.38;;;9.38;;
42978;SDS011;28616;44.746;19.678;2022-07-29T03:52:50;10.10;;;7.50;;
42978;SDS011;28616;44.746;19.678;2022-07-29T03:55:16;25.25;;;7.95;;
42978;SDS011;28616;44.746;19.678;2022-07-29T03:57:42;17.60;;;12.77;;
42978;SDS011;28616;44.746;19.678;2022-07-29T04:00:11;10.75;;;6.97;;
42978;SDS011;28616;44.746;19.678;2022-07-29T04:02:38;15.55;;;7.38;;
42978;SDS011;28616;44.746;19.678;2022-07-29T04:05:04;10.95;;;6.60;;
42978;SDS011;28616;44.746;19.678;2022-07-29T04:07:36;15.18;;;8.52;;
42978;SDS011;28616;44.746;19.678;2022-07-29T04:10:02;10.75;;;7.60;;
42978;SDS011;28616;44.746;19.678;2022-07-29T04:12:28;16.70;;;9.75;;
42978;SDS011;28616;44.746;19.678;2022-07-29T04:14:54;20.65;;;8.48;;
42978;SDS011;28616;44.746;19.678;2022-07-29T04:17:19;13.85;;;7.88;;
42978;SDS011;28616;44.746;19.678;2022-07-29T04:19:45;15.25;;;8.52;;
42978;SDS011;28616;44.746;19.678;2022-07-29T04:22:11;10.65;;;6.90;;
42978;SDS011;28616;44.746;19.678;2022-07-29T04:24:37;21.10;;;7.75;;
42978;SDS011;28616;44.746;19.678;2022-07-29T04:27:02;11.90;;;7.00;;
42978;SDS011;28616;44.746;19.678;2022-07-29T04:29:28;14.50;;;7.45;;
42978;SDS011;28616;44.746;19.678;2022-07-29T04:31:54;13.55;;;6.97;;
42978;SDS011;28616;44.746;19.678;2022-07-29T04:34:20;16.42;;;7.85;;
42978;SDS011;28616;44.746;19.678;2022-07-29T04:36:46;17.73;;;8.68;;
42978;SDS011;28616;44.746;19.678;2022-07-29T04:39:12;14.57;;;7.90;;
42978;SDS011;28616;44.746;19.678;2022-07-29T04:41:37;14.10;;;8.18;;
42978;SDS011;28616;44.746;19.678;2022-07-29T04:44:03;15.63;;;7.20;;
42978;SDS011;28616;44.746;19.678;2022-07-29T04:46:30;23.10;;;8.00;;
42978;SDS011;28616;44.746;19.678;2022-07-29T04:48:57;13.80;;;7.63;;
42978;SDS011;28616;44.746;19.678;2022-07-29T04:51:22;15.23;;;7.03;;
42978;SDS011;28616;44.746;19.678;2022-07-29T04:53:48;12.75;;;7.53;;
42978;SDS011;28616;44.746;19.678;2022-07-29T04:56:14;15.88;;;8.00;;
42978;SDS011;28616;44.746;19.678;2022-07-29T04:58:40;11.65;;;7.47;;
42978;SDS011;28616;44.746;19.678;2022-07-29T05:01:06;13.38;;;7.88;;
42978;SDS011;28616;44.746;19.678;2022-07-29T05:03:31;14.93;;;7.93;;
42978;SDS011;28616;44.746;19.678;2022-07-29T05:05:57;14.63;;;9.10;;
42978;SDS011;28616;44.746;19.678;2022-07-29T05:08:23;17.30;;;7.63;;
42978;SDS011;28616;44.746;19.678;2022-07-29T05:10:49;20.80;;;8.90;;
42978;SDS011;28616;44.746;19.678;2022-07-29T05:13:15;14.82;;;9.32;;
42978;SDS011;28616;44.746;19.678;2022-07-29T05:15:41;18.77;;;8.20;;
42978;SDS011;28616;44.746;19.678;2022-07-29T05:18:07;12.20;;;7.35;;
42978;SDS011;28616;44.746;19.678;2022-07-29T05:20:32;14.18;;;7.95;;
42978;SDS011;28616;44.746;19.678;2022-07-29T05:23:00;20.98;;;9.23;;
42978;SDS011;28616;44.746;19.678;2022-07-29T05:25:27;12.98;;;7.85;;
42978;SDS011;28616;44.746;19.678;2022-07-29T05:27:54;14.52;;;8.45;;
42978;SDS011;28616;44.746;19.678;2022-07-29T05:30:21;21.38;;;8.27;;
42978;SDS011;28616;44.746;19.678;2022-07-29T05:32:47;18.00;;;9.73;;
42978;SDS011;28616;44.746;19.678;2022-07-29T05:35:13;17.15;;;9.55;;
42978;SDS011;28616;44.746;19.678;2022-07-29T05:37:40;21.00;;;8.38;;
42978;SDS011;28616;44.746;19.678;2022-07-29T05:40:06;19.55;;;9.52;;
42978;SDS011;28616;44.746;19.678;2022-07-29T05:42:33;19.33;;;8.68;;
42978;SDS011;28616;44.746;19.678;2022-07-29T05:44:59;35.17;;;10.50;;
42978;SDS011;28616;44.746;19.678;2022-07-29T05:47:25;44.75;;;10.65;;
42978;SDS011;28616;44.746;19.678;2022-07-29T05:49:52;30.00;;;8.73;;
42978;SDS011;28616;44.746;19.678;2022-07-29T05:52:18;23.40;;;10.32;;
42978;SDS011;28616;44.746;19.678;2022-07-29T05:54:44;29.33;;;9.48;;
42978;SDS011;28616;44.746;19.678;2022-07-29T05:57:27;28.17;;;10.27;;
42978;SDS011;28616;44.746;19.678;2022-07-29T05:59:54;20.42;;;10.73;;
42978;SDS011;28616;44.746;19.678;2022-07-29T06:02:20;23.08;;;9.80;;
42978;SDS011;28616;44.746;19.678;2022-07-29T06:04:48;22.67;;;9.25;;
42978;SDS011;28616;44.746;19.678;2022-07-29T06:07:15;24.92;;;9.07;;
42978;SDS011;28616;44.746;19.678;2022-07-29T06:09:41;12.57;;;9.43;;
42978;SDS011;28616;44.746;19.678;2022-07-29T06:12:08;20.25;;;8.80;;
42978;SDS011;28616;44.746;19.678;2022-07-29T06:14:34;25.13;;;9.80;;
42978;SDS011;28616;44.746;19.678;2022-07-29T06:17:01;27.17;;;10.00;;
42978;SDS011;28616;44.746;19.678;2022-07-29T06:19:27;18.35;;;9.77;;
42978;SDS011;28616;44.746;19.678;2022-07-29T06:21:53;19.55;;;9.77;;
42978;SDS011;28616;44.746;19.678;2022-07-29T06:24:19;24.33;;;10.52;;
42978;SDS011;28616;44.746;19.678;2022-07-29T06:26:45;23.13;;;10.05;;
42978;SDS011;28616;44.746;19.678;2022-07-29T06:29:11;29.67;;;11.02;;
42978;SDS011;28616;44.746;19.678;2022-07-29T06:31:39;22.05;;;11.32;;
42978;SDS011;28616;44.746;19.678;2022-07-29T06:34:05;25.08;;;10.60;;
42978;SDS011;28616;44.746;19.678;2022-07-29T06:36:35;21.77;;;9.95;;
42978;SDS011;28616;44.746;19.678;2022-07-29T06:39:03;20.80;;;10.18;;
42978;SDS011;28616;44.746;19.678;2022-07-29T06:41:30;29.33;;;10.13;;
42978;SDS011;28616;44.746;19.678;2022-07-29T06:43:56;24.73;;;8.80;;
42978;SDS011;28616;44.746;19.678;2022-07-29T06:46:25;18.65;;;9.13;;
42978;SDS011;28616;44.746;19.678;2022-07-29T06:48:52;23.98;;;10.77;;
42978;SDS011;28616;44.746;19.678;2022-07-29T06:51:19;20.98;;;9.35;;
42978;SDS011;28616;44.746;19.678;2022-07-29T06:53:45;14.82;;;9.10;;
42978;SDS011;28616;44.746;19.678;2022-07-29T06:56:12;10.77;;;8.48;;
42978;SDS011;28616;44.746;19.678;2022-07-29T06:58:39;11.88;;;8.52;;
42978;SDS011;28616;44.746;19.678;2022-07-29T07:01:05;14.57;;;10.00;;
42978;SDS011;28616;44.746;19.678;2022-07-29T07:03:31;17.17;;;7.95;;
42978;SDS011;28616;44.746;19.678;2022-07-29T07:05:58;12.10;;;7.97;;
42978;SDS011;28616;44.746;19.678;2022-07-29T07:08:25;11.73;;;8.10;;
42978;SDS011;28616;44.746;19.678;2022-07-29T07:10:51;9.55;;;8.35;;
42978;SDS011;28616;44.746;19.678;2022-07-29T07:13:18;15.23;;;10.18;;
42978;SDS011;28616;44.746;19.678;2022-07-29T07:15:44;10.32;;;7.68;;
42978;SDS011;28616;44.746;19.678;2022-07-29T07:18:13;12.13;;;8.38;;
42978;SDS011;28616;44.746;19.678;2022-07-29T07:20:39;12.48;;;8.57;;
42978;SDS011;28616;44.746;19.678;2022-07-29T07:23:05;17.25;;;8.38;;
42978;SDS011;28616;44.746;19.678;2022-07-29T07:25:31;14.02;;;8.98;;
42978;SDS011;28616;44.746;19.678;2022-07-29T07:27:58;13.30;;;8.70;;
42978;SDS011;28616;44.746;19.678;2022-07-29T07:30:24;16.25;;;8.60;;
42978;SDS011;28616;44.746;19.678;2022-07-29T07:32:50;15.05;;;8.23;;
42978;SDS011;28616;44.746;19.678;2022-07-29T07:35:16;16.30;;;7.47;;
42978;SDS011;28616;44.746;19.678;2022-07-29T07:37:44;12.35;;;8.10;;
42978;SDS011;28616;44.746;19.678;2022-07-29T07:40:10;18.48;;;7.82;;
42978;SDS011;28616;44.746;19.678;2022-07-29T07:42:37;15.18;;;8.27;;
42978;SDS011;28616;44.746;19.678;2022-07-29T07:45:04;18.00;;;8.50;;
42978;SDS011;28616;44.746;19.678;2022-07-29T07:47:31;13.55;;;9.77;;
42978;SDS011;28616;44.746;19.678;2022-07-29T07:49:57;13.35;;;9.75;;
42978;SDS011;28616;44.746;19.678;2022-07-29T07:52:23;13.38;;;10.15;;
42978;SDS011;28616;44.746;19.678;2022-07-29T07:54:50;11.40;;;9.55;;
42978;SDS011;28616;44.746;19.678;2022-07-29T07:57:16;22.70;;;11.15;;
42978;SDS011;28616;44.746;19.678;2022-07-29T07:59:42;16.73;;;10.57;;
42978;SDS011;28616;44.746;19.678;2022-07-29T08:02:09;17.88;;;9.90;;
42978;SDS011;28616;44.746;19.678;2022-07-29T08:04:35;10.15;;;9.15;;
42978;SDS011;28616;44.746;19.678;2022-07-29T08:07:01;12.77;;;10.13;;
42978;SDS011;28616;44.746;19.678;2022-07-29T08:09:28;16.27;;;9.98;;
42978;SDS011;28616;44.746;19.678;2022-07-29T08:11:55;13.25;;;11.02;;
42978;SDS011;28616;44.746;19.678;2022-07-29T08:14:21;19.15;;;10.85;;
42978;SDS011;28616;44.746;19.678;2022-07-29T08:16:47;15.20;;;10.27;;
42978;SDS011;28616;44.746;19.678;2022-07-29T08:19:14;11.55;;;10.30;;
42978;SDS011;28616;44.746;19.678;2022-07-29T08:21:40;13.95;;;10.10;;
42978;SDS011;28616;44.746;19.678;2022-07-29T08:24:06;14.07;;;10.60;;
42978;SDS011;28616;44.746;19.678;2022-07-29T08:26:51;12.13;;;10.07;;
42978;SDS011;28616;44.746;19.678;2022-07-29T08:29:17;14.07;;;11.20;;
42978;SDS011;28616;44.746;19.678;2022-07-29T08:31:43;17.27;;;11.32;;
42978;SDS011;28616;44.746;19.678;2022-07-29T08:34:10;15.70;;;11.90;;
42978;SDS011;28616;44.746;19.678;2022-07-29T08:36:37;15.35;;;11.35;;
42978;SDS011;28616;44.746;19.678;2022-07-29T08:39:03;18.83;;;11.98;;
42978;SDS011;28616;44.746;19.678;2022-07-29T08:41:29;16.52;;;11.13;;
42978;SDS011;28616;44.746;19.678;2022-07-29T08:43:56;16.77;;;10.95;;
42978;SDS011;28616;44.746;19.678;2022-07-29T08:46:22;16.65;;;10.05;;
42978;SDS011;28616;44.746;19.678;2022-07-29T08:48:49;11.18;;;9.77;;
42978;SDS011;28616;44.746;19.678;2022-07-29T08:51:17;13.60;;;9.90;;
42978;SDS011;28616;44.746;19.678;2022-07-29T08:53:43;12.63;;;9.18;;
42978;SDS011;28616;44.746;19.678;2022-07-29T08:56:13;13.52;;;9.00;;
42978;SDS011;28616;44.746;19.678;2022-07-29T08:58:41;12.98;;;9.32;;
42978;SDS011;28616;44.746;19.678;2022-07-29T09:01:07;10.40;;;9.30;;
42978;SDS011;28616;44.746;19.678;2022-07-29T09:03:35;16.73;;;9.15;;
42978;SDS011;28616;44.746;19.678;2022-07-29T09:06:02;15.75;;;9.63;;
42978;SDS011;28616;44.746;19.678;2022-07-29T09:08:30;10.90;;;8.38;;
42978;SDS011;28616;44.746;19.678;2022-07-29T09:10:57;10.18;;;9.10;;
42978;SDS011;28616;44.746;19.678;2022-07-29T09:13:25;12.88;;;9.30;;
42978;SDS011;28616;44.746;19.678;2022-07-29T09:15:51;13.23;;;10.48;;
42978;SDS011;28616;44.746;19.678;2022-07-29T09:21:14;14.38;;;9.40;;
42978;SDS011;28616;44.746;19.678;2022-07-29T09:24:08;11.43;;;10.23;;
42978;SDS011;28616;44.746;19.678;2022-07-29T09:26:36;13.10;;;11.90;;
42978;SDS011;28616;44.746;19.678;2022-07-29T09:29:15;16.67;;;11.77;;
42978;SDS011;28616;44.746;19.678;2022-07-29T09:31:46;13.82;;;11.88;;
42978;SDS011;28616;44.746;19.678;2022-07-29T09:34:13;18.42;;;12.73;;
42978;SDS011;28616;44.746;19.678;2022-07-29T09:36:44;13.20;;;11.98;;
42978;SDS011;28616;44.746;19.678;2022-07-29T09:39:11;13.32;;;12.00;;
42978;SDS011;28616;44.746;19.678;2022-07-29T09:41:50;13.23;;;12.13;;
42978;SDS011;28616;44.746;19.678;2022-07-29T09:44:18;14.90;;;11.30;;
42978;SDS011;28616;44.746;19.678;2022-07-29T09:47:03;11.55;;;10.65;;
42978;SDS011;28616;44.746;19.678;2022-07-29T09:49:33;12.20;;;10.98;;
42978;SDS011;28616;44.746;19.678;2022-07-29T09:52:08;15.07;;;11.40;;
42978;SDS011;28616;44.746;19.678;2022-07-29T09:54:36;11.20;;;10.38;;
42978;SDS011;28616;44.746;19.678;2022-07-29T09:57:07;8.32;;;7.38;;
42978;SDS011;28616;44.746;19.678;2022-07-29T09:59:37;9.63;;;7.53;;
42978;SDS011;28616;44.746;19.678;2022-07-29T10:02:13;7.75;;;6.95;;
42978;SDS011;28616;44.746;19.678;2022-07-29T10:04:40;9.75;;;7.80;;
42978;SDS011;28616;44.746;19.678;2022-07-29T10:07:06;15.20;;;7.72;;
42978;SDS011;28616;44.746;19.678;2022-07-29T10:09:33;11.15;;;10.18;;
42978;SDS011;28616;44.746;19.678;2022-07-29T10:14:30;12.25;;;10.77;;
42978;SDS011;28616;44.746;19.678;2022-07-29T10:16:58;11.70;;;10.60;;
42978;SDS011;28616;44.746;19.678;2022-07-29T10:19:25;11.43;;;9.98;;
42978;SDS011;28616;44.746;19.678;2022-07-29T10:21:52;9.23;;;8.32;;
42978;SDS011;28616;44.746;19.678;2022-07-29T10:24:18;9.98;;;8.50;;
42978;SDS011;28616;44.746;19.678;2022-07-29T10:26:44;12.55;;;11.25;;
42978;SDS011;28616;44.746;19.678;2022-07-29T10:29:12;12.63;;;11.13;;
42978;SDS011;28616;44.746;19.678;2022-07-29T10:31:48;13.70;;;10.80;;
42978;SDS011;28616;44.746;19.678;2022-07-29T10:34:20;11.63;;;10.43;;
42978;SDS011;28616;44.746;19.678;2022-07-29T10:42:22;11.88;;;10.95;;
42978;SDS011;28616;44.746;19.678;2022-07-29T10:44:49;16.15;;;10.80;;
42978;SDS011;28616;44.746;19.678;2022-07-29T10:47:25;10.27;;;9.40;;
42978;SDS011;28616;44.746;19.678;2022-07-29T10:49:55;11.43;;;10.52;;
42978;SDS011;28616;44.746;19.678;2022-07-29T10:52:22;11.48;;;10.15;;
42978;SDS011;28616;44.746;19.678;2022-07-29T10:54:52;12.27;;;11.02;;
42978;SDS011;28616;44.746;19.678;2022-07-29T11:05:07;11.10;;;10.00;;
42978;SDS011;28616;44.746;19.678;2022-07-29T11:07:34;11.65;;;10.43;;
42978;SDS011;28616;44.746;19.678;2022-07-29T11:15:12;11.73;;;9.93;;
42978;SDS011;28616;44.746;19.678;2022-07-29T11:28:56;9.02;;;6.60;;
42978;SDS011;28616;44.746;19.678;2022-07-29T11:33:56;16.40;;;7.40;;
42978;SDS011;28616;44.746;19.678;2022-07-29T11:36:22;8.32;;;7.43;;
42978;SDS011;28616;44.746;19.678;2022-07-29T11:38:48;8.85;;;7.35;;
42978;SDS011;28616;44.746;19.678;2022-07-29T11:43:56;12.07;;;7.47;;
42978;SDS011;28616;44.746;19.678;2022-07-29T11:49:08;9.23;;;7.68;;
42978;SDS011;28616;44.746;19.678;2022-07-29T11:51:35;7.80;;;7.10;;
42978;SDS011;28616;44.746;19.678;2022-07-29T11:54:02;8.57;;;7.07;;
42978;SDS011;28616;44.746;19.678;2022-07-29T11:56:30;10.68;;;9.68;;
42978;SDS011;28616;44.746;19.678;2022-07-29T11:59:06;11.45;;;9.65;;
42978;SDS011;28616;44.746;19.678;2022-07-29T12:01:36;12.63;;;9.23;;
42978;SDS011;28616;44.746;19.678;2022-07-29T12:04:03;7.88;;;7.05;;
42978;SDS011;28616;44.746;19.678;2022-07-29T12:06:29;12.27;;;7.03;;
42978;SDS011;28616;44.746;19.678;2022-07-29T12:08:56;9.32;;;7.40;;
42978;SDS011;28616;44.746;19.678;2022-07-29T12:11:22;8.05;;;7.45;;
42978;SDS011;28616;44.746;19.678;2022-07-29T12:13:49;10.75;;;7.50;;
42978;SDS011;28616;44.746;19.678;2022-07-29T12:16:16;10.98;;;7.85;;
42978;SDS011;28616;44.746;19.678;2022-07-29T12:18:42;8.35;;;7.65;;
42978;SDS011;28616;44.746;19.678;2022-07-29T12:21:08;8.13;;;7.40;;
42978;SDS011;28616;44.746;19.678;2022-07-29T12:23:34;13.55;;;7.82;;
42978;SDS011;28616;44.746;19.678;2022-07-29T12:26:04;8.88;;;8.07;;
42978;SDS011;28616;44.746;19.678;2022-07-29T12:28:30;7.88;;;7.18;;
42978;SDS011;28616;44.746;19.678;2022-07-29T12:31:02;8.23;;;7.35;;
42978;SDS011;28616;44.746;19.678;2022-07-29T12:33:28;8.10;;;7.30;;
42978;SDS011;28616;44.746;19.678;2022-07-29T12:35:58;10.48;;;7.95;;
42978;SDS011;28616;44.746;19.678;2022-07-29T12:38:25;13.40;;;7.60;;
42978;SDS011;28616;44.746;19.678;2022-07-29T12:40:52;10.13;;;7.85;;
42978;SDS011;28616;44.746;19.678;2022-07-29T12:43:22;9.55;;;6.82;;
42978;SDS011;28616;44.746;19.678;2022-07-29T12:45:50;8.00;;;7.30;;
42978;SDS011;28616;44.746;19.678;2022-07-29T12:48:16;8.73;;;7.43;;
42978;SDS011;28616;44.746;19.678;2022-07-29T12:50:53;9.82;;;7.60;;
42978;SDS011;28616;44.746;19.678;2022-07-29T12:53:19;13.05;;;8.00;;
42978;SDS011;28616;44.746;19.678;2022-07-29T12:55:46;11.82;;;10.80;;
42978;SDS011;28616;44.746;19.678;2022-07-29T12:58:29;11.32;;;10.20;;
42978;SDS011;28616;44.746;19.678;2022-07-29T13:09:14;9.45;;;8.50;;
42978;SDS011;28616;44.746;19.678;2022-07-29T13:11:50;9.50;;;8.02;;
42978;SDS011;28616;44.746;19.678;2022-07-29T13:14:32;9.48;;;8.25;;
42978;SDS011;28616;44.746;19.678;2022-07-29T13:19:37;10.75;;;8.85;;
42978;SDS011;28616;44.746;19.678;2022-07-29T13:22:06;8.95;;;7.72;;
42978;SDS011;28616;44.746;19.678;2022-07-29T13:24:32;9.45;;;8.48;;
42978;SDS011;28616;44.746;19.678;2022-07-29T13:26:59;9.35;;;8.32;;
42978;SDS011;28616;44.746;19.678;2022-07-29T13:29:25;14.45;;;8.30;;
42978;SDS011;28616;44.746;19.678;2022-07-29T13:31:52;9.35;;;8.32;;
42978;SDS011;28616;44.746;19.678;2022-07-29T13:34:18;9.15;;;8.25;;
42978;SDS011;28616;44.746;19.678;2022-07-29T13:36:47;11.75;;;8.15;;
42978;SDS011;28616;44.746;19.678;2022-07-29T13:39:13;8.93;;;8.13;;
42978;SDS011;28616;44.746;19.678;2022-07-29T13:41:39;9.40;;;8.60;;
42978;SDS011;28616;44.746;19.678;2022-07-29T13:44:05;7.93;;;7.05;;
42978;SDS011;28616;44.746;19.678;2022-07-29T13:46:31;8.98;;;7.97;;
42978;SDS011;28616;44.746;19.678;2022-07-29T13:48:57;9.38;;;8.57;;
42978;SDS011;28616;44.746;19.678;2022-07-29T13:51:24;10.98;;;7.90;;
42978;SDS011;28616;44.746;19.678;2022-07-29T13:53:50;9.75;;;8.70;;
42978;SDS011;28616;44.746;19.678;2022-07-29T13:56:16;9.45;;;8.65;;
42978;SDS011;28616;44.746;19.678;2022-07-29T13:58:42;10.73;;;8.35;;
42978;SDS011;28616;44.746;19.678;2022-07-29T14:01:08;11.45;;;9.35;;
42978;SDS011;28616;44.746;19.678;2022-07-29T14:03:34;11.77;;;10.77;;
42978;SDS011;28616;44.746;19.678;2022-07-29T14:06:03;9.02;;;8.23;;
42978;SDS011;28616;44.746;19.678;2022-07-29T14:08:29;9.80;;;8.80;;
42978;SDS011;28616;44.746;19.678;2022-07-29T14:10:55;12.70;;;8.90;;
42978;SDS011;28616;44.746;19.678;2022-07-29T14:13:21;29.92;;;17.60;;
42978;SDS011;28616;44.746;19.678;2022-07-29T14:15:47;11.52;;;10.40;;
42978;SDS011;28616;44.746;19.678;2022-07-29T14:18:14;10.70;;;9.77;;
42978;SDS011;28616;44.746;19.678;2022-07-29T14:20:40;10.88;;;9.77;;
42978;SDS011;28616;44.746;19.678;2022-07-29T14:23:06;47.60;;;31.95;;
42978;SDS011;28616;44.746;19.678;2022-07-29T14:25:32;72.03;;;32.10;;
42978;SDS011;28616;44.746;19.678;2022-07-29T14:27:58;98.50;;;40.13;;
42978;SDS011;28616;44.746;19.678;2022-07-29T14:30:24;59.25;;;35.33;;
42978;SDS011;28616;44.746;19.678;2022-07-29T14:32:51;13.00;;;11.70;;
42978;SDS011;28616;44.746;19.678;2022-07-29T14:35:17;137.32;;;61.13;;
42978;SDS011;28616;44.746;19.678;2022-07-29T14:37:43;54.95;;;35.30;;
42978;SDS011;28616;44.746;19.678;2022-07-29T14:40:10;58.72;;;40.55;;
42978;SDS011;28616;44.746;19.678;2022-07-29T14:42:36;67.32;;;37.45;;
42978;SDS011;28616;44.746;19.678;2022-07-29T14:45:03;40.75;;;26.17;;
42978;SDS011;28616;44.746;19.678;2022-07-29T14:47:30;356.13;;;120.63;;
42978;SDS011;28616;44.746;19.678;2022-07-29T14:49:56;1999.90;;;857.47;;
42978;SDS011;28616;44.746;19.678;2022-07-29T14:52:22;1500.65;;;427.98;;
42978;SDS011;28616;44.746;19.678;2022-07-29T14:54:49;1999.90;;;716.20;;
42978;SDS011;28616;44.746;19.678;2022-07-29T14:57:15;1931.28;;;583.03;;
42978;SDS011;28616;44.746;19.678;2022-07-29T14:59:41;1999.90;;;702.03;;
42978;SDS011;28616;44.746;19.678;2022-07-29T15:02:08;1940.93;;;627.75;;
42978;SDS011;28616;44.746;19.678;2022-07-29T15:04:34;1999.90;;;960.05;;
42978;SDS011;28616;44.746;19.678;2022-07-29T15:07:00;1999.90;;;999.90;;
42978;SDS011;28616;44.746;19.678;2022-07-29T15:09:26;1999.90;;;999.90;;
42978;SDS011;28616;44.746;19.678;2022-07-29T15:11:52;1999.90;;;999.90;;
42978;SDS011;28616;44.746;19.678;2022-07-29T15:14:19;1999.90;;;999.90;;
42978;SDS011;28616;44.746;19.678;2022-07-29T15:16:45;1999.90;;;999.90;;
42978;SDS011;28616;44.746;19.678;2022-07-29T15:19:11;1999.90;;;999.90;;
42978;SDS011;28616;44.746;19.678;2022-07-29T15:21:37;1999.90;;;999.90;;